Time;durP1;ratioP1;P1;durP2;ratioP2;P2;SDS_P1;SDS_P2;PMS_P1;PMS_P2;Temp;Humidity;BMP_temperature;BMP_pressure;BME280_temperature;BME280_humidity;BME280_pressure;Samples;Min_cycle;Max_cycle;Signal;HPM_P1;HPM_P2
2022/01/04 00:00:13;;;;;;;7.47;2.38;;;;;;;2.98;100.00;99252.06;4925721;29;20406;-91
2022/01/04 00:02:40;;;;;;;13.00;1.98;;;;;;;3.02;100.00;99243.31;4929312;29;20058;-91
2022/01/04 00:05:09;;;;;;;7.53;2.08;;;;;;;2.72;100.00;99214.06;4942893;29;20134;-92
2022/01/04 00:07:36;;;;;;;11.50;2.60;;;;;;;2.80;100.00;99188.84;4956007;29;20061;-91
2022/01/04 00:10:04;;;;;;;8.30;1.92;;;;;;;2.88;100.00;99205.84;4940250;29;20055;-90
2022/01/04 00:15:23;;;;;;;6.53;2.00;;;;;;;2.94;100.00;99221.16;4955471;28;20465;-89
2022/01/04 00:17:50;;;;;;;14.00;2.05;;;;;;;2.79;100.00;99197.47;4931927;29;20051;-89
2022/01/04 00:20:20;;;;;;;9.25;4.05;;;;;;;2.59;100.00;99176.56;4934547;29;20087;-89
2022/01/04 00:22:48;;;;;;;5.55;1.70;;;;;;;3.03;100.00;99223.47;4937771;29;20066;-88
2022/01/04 00:25:16;;;;;;;5.80;1.70;;;;;;;2.82;100.00;99176.72;4942711;29;20055;-89
2022/01/04 00:27:43;;;;;;;12.27;2.03;;;;;;;2.90;100.00;99144.59;4935044;29;20051;-89
2022/01/04 00:30:11;;;;;;;8.10;2.22;;;;;;;2.87;100.00;99158.47;4951255;29;20147;-89
2022/01/04 00:32:38;;;;;;;7.70;1.80;;;;;;;2.82;100.00;99181.88;4955178;29;20050;-90
2022/01/04 00:35:05;;;;;;;5.15;1.50;;;;;;;3.08;100.00;99177.66;4948075;29;20508;-90
2022/01/04 00:37:32;;;;;;;7.43;1.88;;;;;;;2.77;100.00;99176.00;4940297;29;20387;-90
2022/01/04 00:39:59;;;;;;;5.57;1.90;;;;;;;2.77;100.00;99195.84;4922607;29;20110;-90
2022/01/04 00:42:26;;;;;;;5.63;1.60;;;;;;;3.28;100.00;99210.63;4920376;29;20056;-90
2022/01/04 00:44:53;;;;;;;7.13;1.90;;;;;;;3.02;100.00;99209.69;4920015;29;20056;-89
2022/01/04 00:47:26;;;;;;;6.68;1.77;;;;;;;3.10;100.00;99183.59;4919668;29;20411;-89
2022/01/04 00:49:52;;;;;;;6.18;1.95;;;;;;;3.06;100.00;99183.75;4935367;29;20058;-90
2022/01/04 00:52:19;;;;;;;8.25;1.92;;;;;;;2.68;100.00;99160.78;4938643;29;20553;-89
2022/01/04 00:54:46;;;;;;;7.05;2.17;;;;;;;2.69;100.00;99135.78;4954782;29;20061;-90
2022/01/04 00:57:13;;;;;;;12.02;1.98;;;;;;;2.98;100.00;99173.66;4938145;29;20054;-90
2022/01/04 00:59:39;;;;;;;8.40;1.90;;;;;;;2.96;100.00;99170.28;4924804;29;20060;-89
2022/01/04 01:02:06;;;;;;;7.85;2.22;;;;;;;3.21;100.00;99191.84;4919883;29;20074;-90
2022/01/04 01:04:33;;;;;;;9.23;2.17;;;;;;;2.95;100.00;99140.13;4919549;29;20060;-89
2022/01/04 01:07:00;;;;;;;9.75;2.72;;;;;;;3.21;100.00;99186.69;4919033;29;20069;-89
2022/01/04 01:09:31;;;;;;;8.65;2.65;;;;;;;3.49;100.00;99180.63;4931240;29;20051;-89
2022/01/04 01:11:58;;;;;;;12.90;2.35;;;;;;;3.11;100.00;99167.19;4955218;29;20131;-89
2022/01/04 01:14:25;;;;;;;7.07;2.15;;;;;;;3.50;100.00;99163.34;4954663;29;20062;-89
2022/01/04 01:16:52;;;;;;;10.52;2.60;;;;;;;3.08;100.00;99135.41;4953925;29;20130;-89
2022/01/04 01:19:19;;;;;;;8.85;2.20;;;;;;;3.23;100.00;99107.28;4928242;29;20135;-89
2022/01/04 01:21:46;;;;;;;8.38;1.73;;;;;;;2.95;100.00;99125.44;4937838;29;20469;-89
2022/01/04 01:24:17;;;;;;;9.45;2.25;;;;;;;2.88;100.00;99130.88;4938531;29;20489;-89
2022/01/04 01:26:45;;;;;;;13.85;2.10;;;;;;;2.88;100.00;99118.78;4953806;29;20150;-89
2022/01/04 01:29:12;;;;;;;7.75;2.10;;;;;;;3.41;100.00;99149.78;4924640;29;20043;-89
2022/01/04 01:31:39;;;;;;;8.40;2.15;;;;;;;3.19;100.00;99110.88;4918474;29;20054;-89
2022/01/04 01:34:06;;;;;;;6.45;1.63;;;;;;;3.05;100.00;99092.41;4918686;29;20063;-89
2022/01/04 01:36:32;;;;;;;10.90;2.50;;;;;;;3.15;100.00;99114.47;4935797;29;20410;-89
2022/01/04 01:38:59;;;;;;;15.80;2.10;;;;;;;3.15;100.00;99140.34;4957344;28;20055;-89
2022/01/04 01:41:26;;;;;;;7.82;1.90;;;;;;;3.37;100.00;99143.06;4937334;29;20058;-89
2022/01/04 01:43:53;;;;;;;15.10;2.38;;;;;;;3.30;100.00;99141.56;4937497;29;20062;-89
2022/01/04 01:46:19;;;;;;;12.30;2.38;;;;;;;3.09;100.00;99099.16;4954397;29;20051;-89
2022/01/04 01:48:46;;;;;;;9.13;2.38;;;;;;;3.44;100.00;99148.03;4933762;29;20508;-89
2022/01/04 01:51:16;;;;;;;11.90;2.58;;;;;;;2.90;100.00;99103.22;4952799;29;20086;-88
2022/01/04 01:53:45;;;;;;;9.45;2.40;;;;;;;3.40;100.00;99142.94;4946878;29;20083;-90
2022/01/04 01:56:12;;;;;;;10.18;2.38;;;;;;;3.15;100.00;99145.50;4954438;29;20047;-89
2022/01/04 01:58:39;;;;;;;10.80;2.30;;;;;;;3.05;100.00;99118.25;4953399;29;20047;-89
2022/01/04 02:01:05;;;;;;;16.35;2.80;;;;;;;2.98;100.00;99140.03;4953262;29;20731;-88
2022/01/04 02:03:33;;;;;;;11.20;3.08;;;;;;;2.91;100.00;99146.31;4937569;29;20106;-89
2022/01/04 02:05:59;;;;;;;12.48;2.40;;;;;;;3.05;100.00;99144.13;4937280;29;20051;-89
2022/01/04 02:08:26;;;;;;;12.52;2.95;;;;;;;3.02;100.00;99139.88;4936345;29;20512;-89
2022/01/04 02:10:53;;;;;;;16.30;2.78;;;;;;;2.96;100.00;99150.44;4936938;29;20090;-88
2022/01/04 02:13:19;;;;;;;8.07;2.15;;;;;;;3.22;100.00;99143.56;4937521;29;20501;-89
2022/01/04 02:15:46;;;;;;;9.52;2.25;;;;;;;3.39;100.00;99136.06;4967780;28;20054;-89
2022/01/04 02:18:13;;;;;;;9.70;2.50;;;;;;;3.30;100.00;99131.22;4949978;29;20282;-89
2022/01/04 02:20:40;;;;;;;11.98;2.25;;;;;;;3.03;100.00;99136.41;4933584;29;20056;-89
2022/01/04 02:23:07;;;;;;;9.52;2.42;;;;;;;3.21;100.00;99124.59;4937342;29;20047;-90
2022/01/04 02:25:34;;;;;;;10.68;2.10;;;;;;;3.37;100.00;99118.94;4952377;29;20051;-89
2022/01/04 02:28:01;;;;;;;6.22;2.03;;;;;;;3.27;100.00;99138.22;4936505;29;20453;-88
2022/01/04 02:30:28;;;;;;;13.18;2.45;;;;;;;3.11;100.00;99124.97;4936440;29;20138;-89
2022/01/04 02:32:55;;;;;;;18.02;3.25;;;;;;;3.20;100.00;99128.06;4953022;29;20055;-88
2022/01/04 02:35:25;;;;;;;13.23;2.10;;;;;;;3.11;100.00;99130.13;4937184;29;20055;-88
2022/01/04 02:37:56;;;;;;;9.75;2.00;;;;;;;3.14;100.00;99135.22;4935339;29;20070;-89
2022/01/04 02:40:24;;;;;;;12.30;3.40;;;;;;;3.29;100.00;99128.69;4939010;29;20051;-89
2022/01/04 02:42:51;;;;;;;9.98;2.25;;;;;;;3.21;100.00;99142.72;4957778;29;20059;-88
2022/01/04 02:45:18;;;;;;;11.20;2.45;;;;;;;3.14;100.00;99123.13;4957184;29;20079;-89
2022/01/04 02:47:46;;;;;;;7.38;1.65;;;;;;;3.47;100.00;99141.00;4939793;29;20059;-88
2022/01/04 02:50:13;;;;;;;9.88;2.38;;;;;;;3.28;100.00;99135.59;4928889;29;20370;-88
2022/01/04 02:52:40;;;;;;;11.15;2.15;;;;;;;3.35;100.00;99124.16;4957346;29;20055;-88
2022/01/04 02:55:10;;;;;;;8.77;1.88;;;;;;;3.31;100.00;99127.75;4954731;29;20058;-89
2022/01/04 02:57:37;;;;;;;5.10;1.67;;;;;;;3.26;100.00;99121.88;4939755;29;20057;-89
2022/01/04 03:00:06;;;;;;;13.65;2.78;;;;;;;3.33;100.00;99113.00;4938280;29;20059;-88
2022/01/04 03:02:34;;;;;;;6.45;1.98;;;;;;;3.18;100.00;99105.75;4939261;29;20077;-89
2022/01/04 03:05:01;;;;;;;9.63;2.65;;;;;;;3.25;100.00;99120.19;4940097;29;20055;-89
2022/01/04 03:07:28;;;;;;;11.82;2.20;;;;;;;3.26;100.00;99131.34;4940080;29;20055;-89
2022/01/04 03:09:55;;;;;;;14.80;2.20;;;;;;;2.88;100.00;99081.75;4939364;29;20043;-89
2022/01/04 03:12:22;;;;;;;17.83;2.97;;;;;;;2.88;100.00;99103.28;4940381;29;20070;-90
2022/01/04 03:14:49;;;;;;;8.45;2.42;;;;;;;3.56;100.00;99132.94;4940108;29;20707;-89
2022/01/04 03:17:15;;;;;;;10.60;2.03;;;;;;;3.59;100.00;99127.66;4955247;29;20051;-89
2022/01/04 03:19:42;;;;;;;10.32;2.22;;;;;;;3.47;100.00;99130.66;4950199;29;20105;-89
2022/01/04 03:22:09;;;;;;;9.57;1.90;;;;;;;3.76;100.00;99132.22;4939505;29;20656;-90
2022/01/04 03:24:36;;;;;;;8.70;1.95;;;;;;;3.48;100.00;99134.09;4966052;28;20471;-90
2022/01/04 03:27:03;;;;;;;14.30;2.92;;;;;;;3.64;100.00;99147.34;4976553;28;20069;-90
2022/01/04 03:29:29;;;;;;;9.43;2.10;;;;;;;3.75;100.00;99127.97;4944604;29;20062;-89
2022/01/04 03:31:58;;;;;;;12.65;2.55;;;;;;;3.08;100.00;99145.75;4956107;29;20142;-90
2022/01/04 03:34:25;;;;;;;12.68;2.28;;;;;;;3.15;100.00;99166.22;4940291;29;20482;-90
2022/01/04 03:36:52;;;;;;;10.23;3.10;;;;;;;3.12;100.00;99162.88;4955758;29;20101;-90
2022/01/04 03:39:19;;;;;;;16.05;2.50;;;;;;;3.29;100.00;99141.59;4944922;29;20062;-90
2022/01/04 03:41:47;;;;;;;13.98;2.70;;;;;;;3.39;100.00;99159.38;4920698;29;20054;-90
2022/01/04 03:44:18;;;;;;;15.43;2.95;;;;;;;3.17;100.00;99145.44;4953639;28;20054;-89
2022/01/04 03:46:50;;;;;;;15.43;3.47;;;;;;;3.25;100.00;99151.22;4959316;28;20473;-88
2022/01/04 03:49:18;;;;;;;10.60;2.90;;;;;;;2.87;100.00;99142.97;4954176;28;20043;-88
2022/01/04 03:51:45;;;;;;;13.75;3.08;;;;;;;3.11;100.00;99156.00;4957035;28;20059;-88
2022/01/04 03:54:12;;;;;;;20.58;4.53;;;;;;;3.07;100.00;99150.09;4947042;29;20418;-88
2022/01/04 03:56:39;;;;;;;13.30;3.10;;;;;;;3.18;100.00;99121.28;4944170;29;20135;-88
2022/01/04 03:59:05;;;;;;;13.55;2.90;;;;;;;2.84;100.00;99123.22;4930912;29;20130;-89
2022/01/04 04:01:34;;;;;;;15.93;3.00;;;;;;;3.18;100.00;99124.69;4945310;29;20143;-88
2022/01/04 04:04:01;;;;;;;12.50;3.65;;;;;;;3.30;100.00;99120.03;4937112;29;20058;-89
2022/01/04 04:06:27;;;;;;;15.38;3.38;;;;;;;3.00;100.00;99112.38;4955896;28;20058;-88
2022/01/04 04:08:56;;;;;;;13.02;3.53;;;;;;;3.03;100.00;99110.53;4948535;28;20051;-89
2022/01/04 04:11:27;;;;;;;11.77;2.85;;;;;;;2.88;100.00;99113.63;4943260;29;20051;-88
2022/01/04 04:13:54;;;;;;;13.43;2.92;;;;;;;2.85;100.00;99103.38;4943742;29;20494;-88
2022/01/04 04:16:20;;;;;;;11.05;3.30;;;;;;;3.06;100.00;99099.25;4940639;29;20046;-88
2022/01/04 04:18:47;;;;;;;14.90;3.90;;;;;;;3.10;100.00;99087.91;4943315;29;20584;-89
2022/01/04 04:21:14;;;;;;;22.33;4.30;;;;;;;3.10;100.00;99093.09;4935625;29;20483;-89
2022/01/04 04:23:41;;;;;;;15.73;3.38;;;;;;;3.12;100.00;99083.53;4919821;29;20066;-88
2022/01/04 04:26:08;;;;;;;20.40;3.72;;;;;;;3.12;100.00;99087.88;4935697;29;20057;-88
2022/01/04 04:28:34;;;;;;;11.35;2.45;;;;;;;3.11;100.00;99089.59;4937492;29;20051;-88
2022/01/04 04:31:03;;;;;;;11.25;2.92;;;;;;;3.15;100.00;99093.78;4934379;29;20044;-88
2022/01/04 04:33:30;;;;;;;20.70;4.63;;;;;;;2.99;100.00;99097.75;4938516;29;20159;-89
2022/01/04 04:35:57;;;;;;;18.45;3.25;;;;;;;3.11;100.00;99086.16;4935749;29;20396;-88
2022/01/04 04:38:24;;;;;;;12.25;3.78;;;;;;;2.79;100.00;99095.81;4934671;29;20055;-88
2022/01/04 04:40:51;;;;;;;22.05;3.80;;;;;;;2.95;100.00;99078.06;4919448;29;20051;-88
2022/01/04 04:43:18;;;;;;;19.35;3.22;;;;;;;3.14;100.00;99099.84;4919350;29;20055;-88
2022/01/04 04:45:44;;;;;;;12.98;3.28;;;;;;;2.98;100.00;99096.91;4919744;29;20057;-88
2022/01/04 04:48:11;;;;;;;16.65;3.47;;;;;;;2.99;100.00;99087.41;4936202;29;20565;-88
2022/01/04 04:50:38;;;;;;;19.73;5.07;;;;;;;2.88;100.00;99085.19;4938489;29;20047;-88
2022/01/04 04:53:05;;;;;;;10.95;3.00;;;;;;;2.91;100.00;99071.31;4954143;29;20055;-88
2022/01/04 04:55:32;;;;;;;10.23;2.45;;;;;;;2.90;100.00;99087.72;4954103;29;20048;-87
2022/01/04 04:57:59;;;;;;;17.10;4.53;;;;;;;2.69;100.00;99079.75;4938288;29;20051;-87
2022/01/04 05:00:26;;;;;;;22.25;4.50;;;;;;;2.97;100.00;99078.88;4955073;29;20051;-87
2022/01/04 05:02:52;;;;;;;15.40;2.75;;;;;;;2.79;100.00;99047.56;4953103;28;20051;-87
2022/01/04 05:05:20;;;;;;;12.68;2.72;;;;;;;2.64;100.00;99050.66;4938664;29;20078;-87
2022/01/04 05:07:47;;;;;;;11.98;2.53;;;;;;;2.89;100.00;99057.63;4954383;29;20055;-87
2022/01/04 05:10:13;;;;;;;15.80;2.45;;;;;;;2.95;100.00;99053.06;4936959;29;20055;-87
2022/01/04 05:12:40;;;;;;;12.50;2.90;;;;;;;2.97;100.00;99074.53;4935223;29;20074;-87
2022/01/04 05:15:07;;;;;;;10.25;2.45;;;;;;;2.55;100.00;99066.44;4918224;29;20052;-87
2022/01/04 05:17:34;;;;;;;14.77;2.92;;;;;;;2.77;100.00;99061.44;4918352;29;20087;-87
2022/01/04 05:20:01;;;;;;;16.73;3.47;;;;;;;2.75;100.00;99076.16;4918068;29;20375;-87
2022/01/04 05:22:28;;;;;;;17.35;4.07;;;;;;;2.62;100.00;99070.50;4935602;29;20056;-87
2022/01/04 05:24:54;;;;;;;13.73;2.83;;;;;;;2.76;100.00;99049.38;4918422;29;20052;-87
2022/01/04 05:27:21;;;;;;;20.17;3.53;;;;;;;2.67;100.00;99055.69;4919104;29;20218;-88
2022/01/04 05:29:48;;;;;;;22.42;4.00;;;;;;;2.60;100.00;99047.31;4934497;29;20062;-87
2022/01/04 05:32:15;;;;;;;12.85;3.03;;;;;;;2.74;100.00;99059.78;4937830;29;20774;-87
2022/01/04 05:34:42;;;;;;;16.17;3.67;;;;;;;2.91;100.00;99061.00;4937816;29;20055;-87
2022/01/04 05:37:09;;;;;;;20.00;3.78;;;;;;;2.68;100.00;99074.66;4937751;29;20058;-87
2022/01/04 05:39:36;;;;;;;8.73;2.33;;;;;;;2.54;100.00;99072.50;4954273;29;20055;-87
2022/01/04 05:42:03;;;;;;;11.32;3.13;;;;;;;2.62;100.00;99070.50;4953855;29;20160;-88
2022/01/04 05:44:30;;;;;;;18.38;3.97;;;;;;;2.60;100.00;99062.81;4938027;29;20051;-87
2022/01/04 05:46:57;;;;;;;17.83;3.15;;;;;;;2.57;100.00;99056.91;4937958;29;20055;-88
2022/01/04 05:49:24;;;;;;;13.55;2.75;;;;;;;2.84;100.00;99058.59;4960161;28;20107;-87
2022/01/04 05:51:50;;;;;;;10.80;2.50;;;;;;;2.92;100.00;99075.59;4937578;29;20054;-88
2022/01/04 05:54:17;;;;;;;13.57;2.55;;;;;;;2.94;100.00;99078.97;4936970;29;20063;-87
2022/01/04 05:56:44;;;;;;;14.38;2.85;;;;;;;2.79;100.00;99057.06;4937375;29;20078;-87
2022/01/04 05:59:11;;;;;;;14.23;2.97;;;;;;;2.60;100.00;99049.91;4937096;29;20493;-88
2022/01/04 06:01:38;;;;;;;14.02;3.00;;;;;;;2.92;100.00;99060.94;4937878;29;20414;-88
2022/01/04 06:04:05;;;;;;;16.55;3.28;;;;;;;2.87;100.00;99062.81;4937761;29;20058;-89
2022/01/04 06:06:33;;;;;;;18.23;5.32;;;;;;;2.76;100.00;99042.50;4937661;29;20062;-88
2022/01/04 06:09:00;;;;;;;16.58;2.83;;;;;;;2.78;100.00;99040.72;4934266;29;20577;-88
2022/01/04 06:16:54;;;;;;;12.70;4.07;;;;;;;2.63;100.00;99047.19;4958679;29;20055;-88
2022/01/04 06:19:21;;;;;;;11.57;2.38;;;;;;;2.79;100.00;99046.72;4957774;29;20086;-88
2022/01/04 06:21:48;;;;;;;8.95;2.40;;;;;;;3.10;100.00;99051.72;4941177;29;20500;-88
2022/01/04 06:24:15;;;;;;;14.57;3.00;;;;;;;3.00;100.00;99055.50;4941523;29;20051;-87
2022/01/04 06:26:42;;;;;;;16.20;4.55;;;;;;;2.67;100.00;99027.28;4941721;29;20059;-88
2022/01/04 06:29:11;;;;;;;19.05;3.30;;;;;;;2.75;100.00;99037.38;4940723;29;20174;-88
2022/01/04 06:31:42;;;;;;;11.48;2.38;;;;;;;2.96;100.00;99046.16;4941181;29;20133;-88
2022/01/04 06:34:09;;;;;;;16.95;4.10;;;;;;;3.00;100.00;99055.50;4941527;29;20047;-89
2022/01/04 06:36:36;;;;;;;13.80;3.28;;;;;;;2.80;100.00;99038.06;4941345;29;20054;-88
2022/01/04 06:39:03;;;;;;;19.02;4.13;;;;;;;2.43;100.00;99053.00;4957091;29;20058;-88
2022/01/04 06:41:30;;;;;;;12.93;3.17;;;;;;;2.71;100.00;99039.22;4958357;29;20124;-88
2022/01/04 06:43:56;;;;;;;13.07;3.70;;;;;;;2.81;100.00;99024.25;4941191;29;20047;-88
2022/01/04 06:46:25;;;;;;;12.15;3.65;;;;;;;3.01;100.00;99024.44;4956862;29;20055;-88
2022/01/04 06:48:52;;;;;;;13.90;3.30;;;;;;;2.79;100.00;99018.28;4937725;29;20114;-87
2022/01/04 06:51:19;;;;;;;15.43;3.30;;;;;;;3.01;100.00;99041.66;4944274;28;20047;-87
2022/01/04 06:53:46;;;;;;;13.18;3.28;;;;;;;2.89;100.00;99035.19;4976813;28;20398;-87
2022/01/04 06:56:13;;;;;;;15.20;3.80;;;;;;;2.93;100.00;99015.25;4958927;28;20413;-88
2022/01/04 06:58:40;;;;;;;15.32;2.83;;;;;;;2.78;100.00;99007.09;4939332;29;20047;-88
2022/01/04 07:01:07;;;;;;;11.95;2.72;;;;;;;2.67;100.00;99019.53;4940074;29;20047;-87
2022/01/04 07:03:33;;;;;;;11.20;2.85;;;;;;;2.60;100.00;99025.78;4972448;28;20110;-87
2022/01/04 07:06:00;;;;;;;17.70;2.70;;;;;;;2.58;100.00;99017.25;4941189;29;20047;-87
2022/01/04 07:08:27;;;;;;;13.88;2.78;;;;;;;2.70;100.00;99016.84;4953642;28;20055;-87
2022/01/04 07:10:54;;;;;;;16.08;2.63;;;;;;;3.01;100.00;99028.72;4952997;29;20058;-87
2022/01/04 07:13:21;;;;;;;12.57;2.17;;;;;;;3.02;100.00;99036.44;4940033;29;20055;-87
2022/01/04 07:15:48;;;;;;;9.77;2.20;;;;;;;2.84;100.00;99018.97;4937242;29;20047;-87
2022/01/04 07:18:15;;;;;;;12.88;2.05;;;;;;;2.51;100.00;99015.75;4956633;28;20051;-87
2022/01/04 07:20:42;;;;;;;14.50;2.88;;;;;;;2.93;100.00;99012.66;4938413;29;20074;-87
2022/01/04 07:23:08;;;;;;;10.60;1.70;;;;;;;2.80;100.00;98991.56;4931282;29;20055;-86
2022/01/04 07:25:35;;;;;;;9.57;2.42;;;;;;;2.93;100.00;99003.16;4927866;29;20063;-88
2022/01/04 07:28:02;;;;;;;16.13;2.35;;;;;;;2.90;100.00;99023.09;4953292;29;20055;-88
2022/01/04 07:30:29;;;;;;;11.68;2.05;;;;;;;2.72;100.00;99029.72;4937516;29;20055;-88
2022/01/04 07:32:56;;;;;;;9.20;2.40;;;;;;;2.84;100.00;99018.97;4944740;29;20401;-88
2022/01/04 07:35:22;;;;;;;10.30;2.85;;;;;;;3.09;100.00;99018.97;4955113;28;20051;-88
2022/01/04 07:37:49;;;;;;;10.43;2.53;;;;;;;2.83;100.00;99004.34;4936705;29;20064;-88
2022/01/04 07:40:17;;;;;;;10.80;2.70;;;;;;;2.88;100.00;99025.72;4930391;29;20056;-87
2022/01/04 07:42:44;;;;;;;9.88;2.42;;;;;;;3.10;100.00;99022.41;4938269;29;20394;-87
2022/01/04 07:45:11;;;;;;;6.45;2.03;;;;;;;2.76;100.00;99015.78;4956424;29;20054;-87
2022/01/04 07:47:41;;;;;;;10.35;2.70;;;;;;;2.73;100.00;99010.75;4955113;28;20397;-87
2022/01/04 07:50:09;;;;;;;8.30;2.03;;;;;;;2.79;100.00;99020.88;4930511;29;20061;-87
2022/01/04 07:52:36;;;;;;;8.30;2.65;;;;;;;2.97;100.00;99014.22;4955376;29;20054;-87
2022/01/04 07:55:04;;;;;;;8.85;2.00;;;;;;;2.68;100.00;99023.81;4939311;29;20421;-87
2022/01/04 07:57:31;;;;;;;7.50;1.92;;;;;;;2.74;100.00;99017.59;4939131;29;20382;-88
2022/01/04 07:59:58;;;;;;;13.48;2.38;;;;;;;2.87;100.00;99044.72;4922016;29;20056;-87
2022/01/04 08:02:24;;;;;;;10.38;1.90;;;;;;;2.56;100.00;99031.97;4944473;29;20043;-88
2022/01/04 08:04:51;;;;;;;7.85;2.35;;;;;;;2.71;100.00;99046.97;4939106;29;20057;-88
2022/01/04 08:07:18;;;;;;;7.22;1.77;;;;;;;2.83;100.00;99053.47;4955002;29;20057;-88
2022/01/04 08:09:44;;;;;;;12.93;2.60;;;;;;;3.04;100.00;99049.31;4925579;29;20047;-88
2022/01/04 08:12:11;;;;;;;12.77;2.17;;;;;;;2.96;100.00;99048.75;4920292;29;20062;-88
2022/01/04 08:14:38;;;;;;;9.02;2.42;;;;;;;2.83;100.00;99061.22;4920528;29;20565;-88
2022/01/04 08:17:05;;;;;;;9.60;2.70;;;;;;;2.91;100.00;99066.16;4920722;29;20062;-88
2022/01/04 08:19:32;;;;;;;8.98;1.90;;;;;;;2.81;100.00;99029.41;4922346;29;20055;-87
2022/01/04 08:21:59;;;;;;;9.38;1.85;;;;;;;3.14;100.00;99086.91;4935633;29;20134;-88
2022/01/04 08:24:26;;;;;;;8.82;2.15;;;;;;;3.34;100.00;99042.25;4937617;29;20058;-88
2022/01/04 08:26:53;;;;;;;9.35;2.15;;;;;;;3.35;100.00;99059.47;4938146;29;20061;-88
2022/01/04 08:29:19;;;;;;;5.00;1.70;;;;;;;3.28;100.00;99083.88;4937898;29;20130;-88
2022/01/04 08:31:46;;;;;;;9.38;2.58;;;;;;;3.23;100.00;99076.25;4938564;29;20047;-88
2022/01/04 08:34:13;;;;;;;8.32;2.10;;;;;;;2.87;100.00;99018.88;4954880;29;20070;-88
2022/01/04 08:36:40;;;;;;;13.10;2.70;;;;;;;2.84;100.00;99022.41;4938063;29;20066;-87
2022/01/04 08:39:14;;;;;;;9.05;2.60;;;;;;;3.05;100.00;99058.78;4928600;29;20044;-88
2022/01/04 08:41:42;;;;;;;8.13;2.20;;;;;;;2.85;100.00;99073.22;4918849;29;20479;-88
2022/01/04 08:44:09;;;;;;;8.77;2.05;;;;;;;2.73;100.00;99055.53;4919595;29;20051;-88
2022/01/04 08:46:36;;;;;;;8.70;2.28;;;;;;;2.91;100.00;99079.91;4936501;29;20052;-87
2022/01/04 08:49:07;;;;;;;9.20;2.17;;;;;;;2.88;100.00;99068.84;4922337;29;20142;-87
2022/01/04 08:51:35;;;;;;;8.35;2.00;;;;;;;2.94;100.00;99081.53;4919381;29;20087;-88
2022/01/04 08:54:04;;;;;;;10.40;1.75;;;;;;;2.66;100.00;99074.69;4919789;29;20051;-88
2022/01/04 08:56:31;;;;;;;9.88;2.33;;;;;;;2.98;100.00;99075.41;4935140;29;20047;-88
2022/01/04 08:58:58;;;;;;;10.88;2.10;;;;;;;3.13;100.00;99089.53;4953391;29;20055;-88
2022/01/04 09:01:25;;;;;;;10.98;2.45;;;;;;;2.97;100.00;99096.97;4938394;29;20051;-88
2022/01/04 09:03:52;;;;;;;13.98;2.38;;;;;;;2.81;100.00;99112.97;4955685;29;20138;-88
2022/01/04 09:06:21;;;;;;;14.82;2.28;;;;;;;2.72;100.00;99120.19;4946415;28;20053;-88
2022/01/04 09:08:50;;;;;;;11.70;2.58;;;;;;;3.14;100.00;99130.88;4941161;29;20061;-88
2022/01/04 09:11:21;;;;;;;12.52;3.08;;;;;;;3.23;100.00;99140.06;4935654;29;20135;-89
2022/01/04 09:13:49;;;;;;;15.05;2.55;;;;;;;2.94;100.00;99153.94;4918577;29;20375;-88
2022/01/04 09:19:01;;;;;;;15.18;3.58;;;;;;;2.80;100.00;99137.13;4943604;29;20394;-87
2022/01/04 09:21:32;;;;;;;16.80;3.42;;;;;;;2.72;100.00;99135.69;4919257;29;20458;-87
2022/01/04 09:23:59;;;;;;;13.88;3.08;;;;;;;2.82;100.00;99119.84;4918716;29;20506;-87
2022/01/04 09:26:28;;;;;;;13.30;2.42;;;;;;;2.94;100.00;99118.59;4949362;29;20559;-88
2022/01/04 09:28:55;;;;;;;11.93;2.72;;;;;;;2.77;100.00;99113.13;4927558;29;20106;-87
2022/01/04 09:31:23;;;;;;;13.75;3.70;;;;;;;2.90;100.00;99126.50;4918151;29;20060;-87
2022/01/04 09:33:52;;;;;;;11.55;2.67;;;;;;;2.83;100.00;99103.44;4918654;29;20051;-87
2022/01/04 09:36:31;;;;;;;11.05;2.95;;;;;;;3.04;100.00;99113.97;4919299;29;20055;-87
2022/01/04 09:38:59;;;;;;;15.85;2.55;;;;;;;2.96;100.00;99123.72;4934399;29;20502;-88
2022/01/04 09:41:26;;;;;;;10.93;2.40;;;;;;;2.75;100.00;99107.16;4953610;28;20081;-87
2022/01/04 09:43:53;;;;;;;10.18;2.35;;;;;;;2.66;100.00;99116.88;4956329;28;20055;-88
2022/01/04 09:46:21;;;;;;;9.93;2.40;;;;;;;2.85;100.00;99130.09;4955897;28;20133;-86
2022/01/04 09:48:48;;;;;;;11.75;3.33;;;;;;;2.99;100.00;99108.09;4940818;28;20083;-86
2022/01/04 09:51:16;;;;;;;12.13;2.55;;;;;;;2.64;100.00;99118.69;4938597;29;20070;-87
2022/01/04 09:53:43;;;;;;;8.23;2.30;;;;;;;2.97;100.00;99112.47;4941057;29;20083;-86
2022/01/04 09:56:10;;;;;;;8.00;2.10;;;;;;;3.07;100.00;99106.13;4942037;28;20055;-87
2022/01/04 09:58:37;;;;;;;11.52;2.05;;;;;;;2.89;100.00;99094.63;4945853;28;20528;-87
2022/01/04 10:01:04;;;;;;;9.23;2.65;;;;;;;3.13;100.00;99074.88;4940184;29;20059;-87
2022/01/04 10:03:32;;;;;;;18.20;2.30;;;;;;;2.89;100.00;99096.38;4940704;29;20054;-87
2022/01/04 10:06:14;;;;;;;12.38;2.50;;;;;;;3.13;100.00;99098.13;4953207;28;20109;-87
2022/01/04 10:09:00;;;;;;;9.07;2.10;;;;;;;3.10;100.00;99103.44;4949216;28;20061;-86
2022/01/04 10:11:36;;;;;;;15.57;3.08;;;;;;;3.12;100.00;99103.38;4955345;29;20055;-87
2022/01/04 10:14:26;;;;;;;19.70;3.05;;;;;;;3.26;100.00;99123.59;4956456;29;20537;-87
2022/01/04 10:16:58;;;;;;;16.45;4.13;;;;;;;3.46;100.00;99128.97;4940228;29;20047;-88
2022/01/04 10:19:36;;;;;;;22.02;4.20;;;;;;;3.17;100.00;99111.81;4950755;29;20059;-88
2022/01/04 10:22:11;;;;;;;17.65;3.67;;;;;;;3.43;100.00;99123.88;4939446;29;20386;-88
2022/01/04 10:24:39;;;;;;;16.63;3.20;;;;;;;3.33;100.00;99101.78;4952504;29;20057;-89
2022/01/04 10:27:22;;;;;;;12.00;2.75;;;;;;;3.46;100.00;99110.00;4939642;29;20066;-88
2022/01/04 10:30:06;;;;;;;14.32;3.42;;;;;;;3.24;100.00;99100.41;4955033;28;20782;-90
2022/01/04 10:32:59;;;;;;;18.63;3.80;;;;;;;3.70;100.00;99111.75;4953224;29;20051;-90
2022/01/04 10:35:28;;;;;;;19.30;4.60;;;;;;;3.35;100.00;99129.31;4934679;29;20426;-89
2022/01/04 10:37:57;;;;;;;20.50;4.15;;;;;;;3.53;100.00;99134.78;4954720;29;20069;-89
2022/01/04 10:40:25;;;;;;;14.45;3.33;;;;;;;3.52;100.00;99127.91;4955850;29;20065;-89
2022/01/04 10:42:52;;;;;;;15.77;3.53;;;;;;;3.21;100.00;99111.66;4955444;28;20537;-89
2022/01/04 10:45:30;;;;;;;23.30;4.38;;;;;;;3.42;100.00;99135.16;4940804;28;20072;-88
2022/01/04 10:48:25;;;;;;;14.07;3.38;;;;;;;3.22;100.00;99135.78;4938907;29;20055;-89
2022/01/04 10:50:56;;;;;;;19.02;3.00;;;;;;;3.19;100.00;99126.41;4921402;29;20044;-89
2022/01/04 10:53:31;;;;;;;17.85;5.50;;;;;;;3.63;100.00;99122.34;4939370;29;20134;-90
2022/01/04 10:56:02;;;;;;;16.67;3.35;;;;;;;3.72;100.00;99109.06;4929898;29;20051;-89
2022/01/04 10:58:33;;;;;;;15.32;3.90;;;;;;;3.55;100.00;99095.00;4937119;29;20054;-90
2022/01/04 11:01:04;;;;;;;16.98;4.40;;;;;;;3.19;100.00;99104.88;4936124;29;20062;-89
2022/01/04 11:03:33;;;;;;;16.42;3.53;;;;;;;3.10;100.00;99107.75;4921241;29;20052;-90
2022/01/04 11:06:07;;;;;;;13.15;4.07;;;;;;;3.26;100.00;99088.25;4927190;29;20087;-86
2022/01/04 11:08:34;;;;;;;;;;;;;;;3.54;100.00;99115.75;4952211;29;20067;-87
2022/01/04 11:11:02;;;;;;;10.60;3.10;;;;;;;3.66;100.00;99107.56;4936667;29;19922;-88
2022/01/04 11:13:29;;;;;;;14.63;2.78;;;;;;;3.84;100.00;99105.22;4920999;29;20052;-87
2022/01/04 11:15:56;;;;;;;17.13;3.65;;;;;;;2.95;100.00;99018.63;4927038;29;20078;-88
2022/01/04 11:18:24;;;;;;;16.23;3.47;;;;;;;2.87;100.00;99039.56;4953141;29;20541;-87
2022/01/04 11:20:52;;;;;;;26.05;4.35;;;;;;;3.48;100.00;99097.84;4920826;29;20387;-89
2022/01/04 11:23:24;;;;;;;25.23;4.50;;;;;;;3.61;100.00;99091.34;4937403;29;20528;-88
2022/01/04 11:25:51;;;;;;;16.30;3.63;;;;;;;3.59;100.00;99080.19;4955302;29;20055;-88
2022/01/04 11:28:18;;;;;;;17.58;3.05;;;;;;;3.26;100.00;99072.72;4929896;29;20054;-89
2022/01/04 11:30:45;;;;;;;16.90;3.47;;;;;;;3.75;100.00;99081.38;4921535;29;20059;-89
2022/01/04 11:33:27;;;;;;;17.27;3.42;;;;;;;3.46;100.00;99068.59;4949135;29;20051;-88
2022/01/04 11:35:55;;;;;;;16.73;3.58;;;;;;;3.45;100.00;99056.56;4951864;29;20027;-89
2022/01/04 11:38:36;;;;;;;16.10;3.50;;;;;;;3.64;100.00;99042.06;4956520;29;20122;-90
2022/01/04 11:41:05;;;;;;;17.75;3.42;;;;;;;3.53;100.00;99052.78;4970322;29;20141;-89